Time;durP1;ratioP1;P1;durP2;ratioP2;P2;SDS_P1;SDS_P2;PMS_P1;PMS_P2;Temp;Humidity;BMP_temperature;BMP_pressure;BME280_temperature;BME280_humidity;BME280_pressure;Samples;Min_cycle;Max_cycle;Signal;HPM_P1;HPM_P2
2022/04/04 00:00:12;;;;;;;6.72;3.55;;;4.80;80.00;;;;;;5050112;28;20037;-70
2022/04/04 00:02:38;;;;;;;7.00;3.60;;;4.80;80.00;;;;;;5050163;28;20049;-70
2022/04/04 00:05:04;;;;;;;4.53;3.40;;;4.80;80.10;;;;;;5048140;28;20056;-70
2022/04/04 00:07:30;;;;;;;4.93;3.45;;;4.90;80.10;;;;;;5049919;28;20063;-70
2022/04/04 00:09:56;;;;;;;7.70;3.92;;;4.90;80.10;;;;;;5050055;28;20052;-70
2022/04/04 00:12:22;;;;;;;5.05;3.95;;;4.80;80.10;;;;;;5050221;28;20406;-70
2022/04/04 00:14:49;;;;;;;4.30;3.90;;;4.80;80.70;;;;;;5049903;28;20067;-70
2022/04/04 00:17:15;;;;;;;7.18;4.40;;;4.80;80.70;;;;;;5049909;28;20051;-70
2022/04/04 00:19:40;;;;;;;13.85;5.43;;;4.90;80.30;;;;;;5049325;28;20049;-70
2022/04/04 00:22:06;;;;;;;10.20;6.32;;;4.90;80.40;;;;;;5050137;28;20513;-70
2022/04/04 00:24:32;;;;;;;7.18;5.40;;;4.90;80.30;;;;;;5049850;28;20116;-70
2022/04/04 00:26:58;;;;;;;7.55;5.70;;;5.00;80.30;;;;;;5049147;28;20043;-70
2022/04/04 00:29:25;;;;;;;8.80;6.05;;;5.10;80.30;;;;;;5050240;28;20040;-70
2022/04/04 00:31:51;;;;;;;8.38;6.45;;;5.10;80.60;;;;;;5048050;28;20865;-69
2022/04/04 00:34:16;;;;;;;11.15;6.97;;;5.20;80.10;;;;;;5049604;28;20040;-70
2022/04/04 00:36:43;;;;;;;10.85;6.80;;;5.10;80.60;;;;;;5048908;28;20067;-69
2022/04/04 00:39:10;;;;;;;11.60;7.93;;;5.20;80.60;;;;;;5032200;28;20041;-71
2022/04/04 00:41:35;;;;;;;10.73;7.43;;;5.20;80.80;;;;;;5049458;28;20037;-70
2022/04/04 00:44:01;;;;;;;12.50;8.40;;;5.10;80.90;;;;;;5050063;28;20114;-70
2022/04/04 00:46:27;;;;;;;10.13;8.18;;;5.30;80.50;;;;;;5049050;28;20040;-71
2022/04/04 00:48:52;;;;;;;11.10;7.90;;;5.30;80.40;;;;;;5049246;28;20445;-70
2022/04/04 00:51:18;;;;;;;11.80;8.18;;;5.30;80.50;;;;;;5049754;28;20097;-70
2022/04/04 00:53:44;;;;;;;11.25;7.03;;;5.40;80.40;;;;;;5047976;28;20398;-71
2022/04/04 00:56:11;;;;;;;11.40;7.32;;;5.40;80.30;;;;;;5049597;28;20033;-71
2022/04/04 00:58:38;;;;;;;11.38;7.47;;;5.40;80.10;;;;;;5048977;28;20053;-70
2022/04/04 01:01:05;;;;;;;11.73;7.82;;;5.40;80.30;;;;;;5048588;28;20092;-70
2022/04/04 01:03:31;;;;;;;8.38;6.75;;;5.40;80.30;;;;;;5047979;28;20052;-70
2022/04/04 01:05:58;;;;;;;10.30;7.55;;;5.40;80.20;;;;;;5049241;28;20041;-70
2022/04/04 01:08:24;;;;;;;13.20;7.47;;;5.50;80.00;;;;;;5049293;28;20212;-70
2022/04/04 01:10:50;;;;;;;12.55;7.90;;;5.60;80.00;;;;;;5047348;28;20854;-70
2022/04/04 01:13:16;;;;;;;12.32;8.05;;;5.60;80.00;;;;;;5048900;28;20410;-71
2022/04/04 01:15:42;;;;;;;14.10;9.13;;;5.60;79.90;;;;;;5049153;28;20506;-70
2022/04/04 01:18:09;;;;;;;12.50;8.85;;;5.60;80.20;;;;;;5050659;28;20047;-70
2022/04/04 01:20:36;;;;;;;14.55;8.25;;;5.70;80.20;;;;;;5053354;28;20049;-70
2022/04/04 01:23:02;;;;;;;14.88;9.10;;;5.70;80.40;;;;;;5053380;28;20052;-70
2022/04/04 01:25:30;;;;;;;11.32;8.63;;;5.70;80.50;;;;;;5053172;28;20041;-70
2022/04/04 01:27:57;;;;;;;14.68;9.07;;;5.70;80.60;;;;;;5052568;28;20049;-70
2022/04/04 01:30:24;;;;;;;13.43;9.40;;;5.70;80.60;;;;;;5053314;28;20048;-70
2022/04/04 01:32:49;;;;;;;13.32;9.27;;;5.80;80.50;;;;;;5052285;28;20041;-71
2022/04/04 01:35:19;;;;;;;15.60;8.70;;;5.80;80.90;;;;;;5052029;28;20107;-70
2022/04/04 01:37:46;;;;;;;12.63;9.85;;;5.80;80.90;;;;;;5051986;28;20049;-70
2022/04/04 01:40:12;;;;;;;12.07;8.95;;;5.90;80.80;;;;;;5053317;28;20040;-70
2022/04/04 01:42:39;;;;;;;14.02;9.38;;;5.90;80.90;;;;;;5053149;28;20527;-70
2022/04/04 01:45:09;;;;;;;13.98;9.63;;;5.90;80.70;;;;;;5052829;28;20405;-71
2022/04/04 01:47:35;;;;;;;17.33;9.35;;;5.90;81.10;;;;;;5052877;28;20063;-70
2022/04/04 01:50:02;;;;;;;12.27;9.02;;;5.90;80.80;;;;;;5053408;28;20468;-70
2022/04/04 01:52:28;;;;;;;14.25;10.07;;;5.90;81.20;;;;;;5051575;28;20048;-70
2022/04/04 01:54:54;;;;;;;18.27;9.40;;;5.90;81.00;;;;;;5052346;28;20132;-71
2022/04/04 01:57:19;;;;;;;19.23;11.00;;;5.90;81.10;;;;;;5052543;28;20044;-70
2022/04/04 01:59:45;;;;;;;16.40;10.02;;;5.90;81.00;;;;;;5052899;28;20571;-70
2022/04/04 02:02:11;;;;;;;21.25;9.93;;;6.00;80.90;;;;;;5053207;28;20076;-70
2022/04/04 02:04:36;;;;;;;14.98;9.35;;;6.00;80.80;;;;;;5052716;28;20536;-70
2022/04/04 02:07:03;;;;;;;15.70;10.57;;;6.00;80.80;;;;;;5052521;28;20053;-70
2022/04/04 02:09:29;;;;;;;18.95;9.85;;;6.00;80.80;;;;;;5053054;28;20516;-70
2022/04/04 02:11:54;;;;;;;15.60;10.20;;;6.00;80.70;;;;;;5052905;28;20037;-70
2022/04/04 02:14:20;;;;;;;13.18;10.23;;;6.10;80.70;;;;;;5053045;28;20359;-70
2022/04/04 02:16:46;;;;;;;16.58;11.05;;;6.10;80.30;;;;;;5052841;28;20041;-69
2022/04/04 02:19:11;;;;;;;14.32;10.05;;;6.00;80.50;;;;;;5052306;28;20045;-70
2022/04/04 02:21:38;;;;;;;20.63;11.70;;;6.00;80.40;;;;;;5052597;28;20041;-70
2022/04/04 02:24:04;;;;;;;17.15;10.52;;;6.00;80.50;;;;;;5051538;28;20478;-70
2022/04/04 02:26:29;;;;;;;16.88;10.10;;;6.10;80.20;;;;;;5049380;28;20116;-70
2022/04/04 02:28:55;;;;;;;17.52;10.52;;;6.10;80.10;;;;;;5051406;28;20116;-70
2022/04/04 02:31:21;;;;;;;15.48;13.77;;;6.00;80.40;;;;;;5052225;28;20066;-70
2022/04/04 02:33:47;;;;;;;14.68;11.38;;;6.00;80.50;;;;;;5051751;28;20041;-70
2022/04/04 02:36:13;;;;;;;17.98;11.60;;;6.00;80.60;;;;;;5051964;28;20041;-70
2022/04/04 02:38:38;;;;;;;16.83;11.75;;;6.10;80.50;;;;;;5051799;28;20091;-70
2022/04/04 02:41:05;;;;;;;15.82;11.25;;;6.00;80.80;;;;;;5052493;28;20531;-71
2022/04/04 02:43:31;;;;;;;14.27;11.20;;;6.00;81.00;;;;;;5052034;28;20048;-69
2022/04/04 02:45:57;;;;;;;18.98;11.20;;;6.00;81.00;;;;;;5050905;28;20441;-69
2022/04/04 02:48:23;;;;;;;24.92;11.32;;;6.00;81.10;;;;;;5051940;28;20097;-70
2022/04/04 02:50:49;;;;;;;17.20;11.32;;;6.00;81.30;;;;;;5050039;28;20049;-69
2022/04/04 02:53:15;;;;;;;15.40;11.07;;;6.00;81.10;;;;;;5052719;28;20154;-69
2022/04/04 02:58:27;;;;;;;18.52;11.73;;;6.10;81.20;;;;;;5049445;28;20045;-69
2022/04/04 03:00:52;;;;;;;18.10;12.15;;;6.00;81.40;;;;;;5052029;28;20104;-69
2022/04/04 03:03:19;;;;;;;17.83;11.35;;;6.00;81.50;;;;;;5052040;28;20083;-70
2022/04/04 03:05:44;;;;;;;17.33;11.25;;;6.10;81.10;;;;;;5051566;28;20045;-70
2022/04/04 03:08:10;;;;;;;14.95;10.88;;;6.20;80.90;;;;;;5050591;28;20480;-70
2022/04/04 03:10:36;;;;;;;19.17;10.48;;;6.10;80.80;;;;;;5051142;28;20056;-69
2022/04/04 03:13:05;;;;;;;17.77;9.70;;;6.20;80.70;;;;;;5051392;28;20069;-70
2022/04/04 03:15:32;;;;;;;13.45;10.82;;;6.20;80.70;;;;;;5050829;28;20049;-69
2022/04/04 03:17:58;;;;;;;17.27;11.00;;;6.20;81.00;;;;;;5049723;28;20123;-70
2022/04/04 03:20:25;;;;;;;16.23;10.57;;;6.20;81.00;;;;;;5051795;28;20182;-70
2022/04/04 03:22:56;;;;;;;18.85;11.77;;;6.20;81.40;;;;;;5050327;28;20071;-70
2022/04/04 03:25:22;;;;;;;26.17;11.95;;;6.20;81.60;;;;;;5052344;28;20045;-70
2022/04/04 03:27:49;;;;;;;20.42;12.45;;;6.20;81.90;;;;;;5048226;28;20044;-70
2022/04/04 03:30:18;;;;;;;16.83;11.32;;;6.10;82.20;;;;;;5067976;28;20505;-70
2022/04/04 03:32:45;;;;;;;21.80;11.45;;;6.10;82.40;;;;;;5047825;28;20048;-70
2022/04/04 03:35:11;;;;;;;21.35;12.07;;;6.10;82.80;;;;;;5050549;28;20076;-70
2022/04/04 03:37:37;;;;;;;21.83;12.13;;;6.10;82.90;;;;;;5050886;28;20056;-70
2022/04/04 03:40:08;;;;;;;16.63;11.50;;;6.10;83.30;;;;;;5031698;28;20072;-69
2022/04/04 03:42:35;;;;;;;16.77;10.00;;;6.10;83.30;;;;;;5043051;28;20073;-70
2022/04/04 03:45:01;;;;;;;15.63;10.88;;;6.10;83.20;;;;;;5051689;28;20174;-70
2022/04/04 03:47:26;;;;;;;15.88;9.77;;;6.00;83.60;;;;;;5051253;28;20156;-70
2022/04/04 03:49:52;;;;;;;14.00;7.53;;;6.10;83.30;;;;;;5038618;28;20184;-70
2022/04/04 03:52:18;;;;;;;16.98;8.68;;;6.10;82.10;;;;;;5052841;28;20040;-69
2022/04/04 03:54:43;;;;;;;14.75;8.05;;;6.20;81.60;;;;;;5038320;28;20044;-70
2022/04/04 03:57:09;;;;;;;18.20;9.00;;;6.10;81.40;;;;;;5049354;28;20037;-70
2022/04/04 03:59:35;;;;;;;19.80;9.45;;;6.10;81.60;;;;;;5043507;28;20120;-70
2022/04/04 04:02:00;;;;;;;14.10;9.25;;;6.10;81.80;;;;;;5051312;28;20075;-70
2022/04/04 04:04:26;;;;;;;15.68;9.13;;;6.00;82.50;;;;;;5051869;28;20490;-69
2022/04/04 04:06:52;;;;;;;11.85;9.55;;;6.00;82.70;;;;;;5050373;28;20049;-69
2022/04/04 04:09:18;;;;;;;11.00;9.25;;;5.90;82.90;;;;;;5046770;28;20116;-69
2022/04/04 04:11:44;;;;;;;15.38;10.32;;;6.00;82.80;;;;;;5034878;28;20080;-70
2022/04/04 04:14:09;;;;;;;16.45;10.10;;;5.90;83.40;;;;;;5049462;28;20154;-70
2022/04/04 04:16:35;;;;;;;17.63;10.40;;;6.00;83.40;;;;;;5049159;28;20413;-72
2022/04/04 04:19:01;;;;;;;10.60;8.73;;;5.90;83.90;;;;;;5046439;28;20580;-70
2022/04/04 04:21:27;;;;;;;17.08;10.85;;;5.90;83.70;;;;;;5031395;28;20049;-69
2022/04/04 04:23:53;;;;;;;24.17;10.50;;;5.90;83.90;;;;;;5048744;28;20037;-69
2022/04/04 04:26:19;;;;;;;17.85;9.88;;;5.90;83.90;;;;;;5047692;28;20115;-70
2022/04/04 04:28:47;;;;;;;14.75;9.55;;;5.90;84.10;;;;;;5029909;28;20104;-72
2022/04/04 04:31:14;;;;;;;17.20;10.23;;;5.90;84.40;;;;;;5037689;28;20513;-72
2022/04/04 04:33:40;;;;;;;13.80;9.48;;;5.90;84.50;;;;;;5041391;28;20045;-72
2022/04/04 04:36:07;;;;;;;14.68;10.68;;;5.90;84.70;;;;;;5045266;28;20049;-72
2022/04/04 04:38:34;;;;;;;17.90;10.23;;;5.80;84.80;;;;;;5035660;28;20042;-71
2022/04/04 04:41:00;;;;;;;18.42;10.13;;;5.80;85.60;;;;;;5039699;28;20055;-70
2022/04/04 04:43:26;;;;;;;16.02;10.18;;;5.70;86.00;;;;;;5042287;28;20033;-70
2022/04/04 04:45:52;;;;;;;16.17;11.00;;;5.80;86.00;;;;;;5045638;28;20037;-69
2022/04/04 04:48:18;;;;;;;15.38;9.93;;;5.80;86.20;;;;;;5045216;28;20053;-70
2022/04/04 04:50:44;;;;;;;17.30;12.00;;;5.80;86.60;;;;;;5046762;28;20139;-71
2022/04/04 04:53:10;;;;;;;18.95;10.27;;;5.80;86.40;;;;;;5048396;28;20521;-71
2022/04/04 04:55:36;;;;;;;15.75;10.73;;;5.80;86.50;;;;;;5041952;28;20055;-70
2022/04/04 04:58:02;;;;;;;20.95;10.30;;;5.80;86.30;;;;;;5028589;28;20044;-70
2022/04/04 05:00:29;;;;;;;21.52;11.25;;;5.70;85.90;;;;;;5042278;28;20505;-71
2022/04/04 05:05:43;;;;;;;12.48;10.07;;;5.80;85.20;;;;;;5045693;28;21408;-69
2022/04/04 05:08:08;;;;;;;15.23;8.75;;;5.70;85.10;;;;;;5047728;28;20048;-70
2022/04/04 05:10:34;;;;;;;15.15;8.10;;;5.60;85.30;;;;;;5047209;28;20106;-70
2022/04/04 05:12:59;;;;;;;11.95;7.68;;;5.60;85.10;;;;;;5046949;28;20037;-70
2022/04/04 05:15:25;;;;;;;13.40;8.60;;;5.60;85.00;;;;;;5047384;28;20111;-70
2022/04/04 05:17:52;;;;;;;11.68;7.88;;;5.60;85.30;;;;;;5047299;28;20052;-69
2022/04/04 05:20:19;;;;;;;14.80;7.25;;;5.60;85.20;;;;;;5047869;28;20374;-70
2022/04/04 05:22:44;;;;;;;9.43;5.47;;;5.50;85.40;;;;;;5046313;28;20045;-70
2022/04/04 05:25:11;;;;;;;6.05;4.95;;;5.40;84.60;;;;;;5048543;28;20048;-69
2022/04/04 05:27:38;;;;;;;8.18;5.30;;;5.40;84.80;;;;;;5048229;28;20040;-70
2022/04/04 05:30:05;;;;;;;7.13;5.15;;;5.30;84.90;;;;;;5047435;28;20076;-70
2022/04/04 05:32:30;;;;;;;10.75;4.82;;;5.40;84.70;;;;;;5045185;28;20073;-70
2022/04/04 05:34:56;;;;;;;6.63;4.10;;;5.30;84.80;;;;;;5047532;28;20122;-70
2022/04/04 05:37:21;;;;;;;7.70;4.40;;;5.30;84.80;;;;;;5047762;28;20044;-69
2022/04/04 05:39:47;;;;;;;7.25;4.00;;;5.30;84.90;;;;;;5046539;28;20068;-70
2022/04/04 05:42:12;;;;;;;6.32;4.35;;;5.30;84.90;;;;;;5047127;28;20045;-70
2022/04/04 05:44:38;;;;;;;6.85;3.78;;;5.20;84.70;;;;;;5048825;28;20881;-70
2022/04/04 05:47:04;;;;;;;7.63;4.43;;;5.20;85.00;;;;;;5048344;28;20029;-70
2022/04/04 05:49:30;;;;;;;7.40;4.38;;;5.10;85.40;;;;;;5048646;28;20041;-69
2022/04/04 05:51:56;;;;;;;7.57;3.67;;;5.10;85.30;;;;;;5048201;28;20056;-70
2022/04/04 05:54:21;;;;;;;12.70;4.43;;;5.10;86.00;;;;;;5048469;28;20052;-70
2022/04/04 05:56:47;;;;;;;8.70;4.22;;;5.10;86.30;;;;;;5048738;28;20557;-70
2022/04/04 05:59:13;;;;;;;9.27;4.72;;;5.10;86.30;;;;;;5048535;28;20048;-70
2022/04/04 06:01:40;;;;;;;9.07;4.35;;;5.10;86.30;;;;;;5047881;28;20048;-69
2022/04/04 06:04:05;;;;;;;4.70;4.20;;;5.20;86.10;;;;;;5051491;28;20037;-70
2022/04/04 06:06:31;;;;;;;7.00;4.57;;;5.20;86.10;;;;;;5052111;28;20288;-70
2022/04/04 06:08:57;;;;;;;6.45;4.80;;;5.20;86.30;;;;;;5051989;28;20128;-68
2022/04/04 06:11:23;;;;;;;11.73;4.95;;;5.30;86.00;;;;;;5050707;28;20053;-69
2022/04/04 06:13:48;;;;;;;10.18;5.55;;;5.30;85.90;;;;;;5049524;28;20056;-70
2022/04/04 06:16:14;;;;;;;7.75;4.60;;;5.40;85.80;;;;;;5051639;28;20041;-69
2022/04/04 06:18:40;;;;;;;7.70;5.40;;;5.40;86.10;;;;;;5052447;28;20052;-68
2022/04/04 06:21:06;;;;;;;9.48;5.20;;;5.40;85.80;;;;;;5051193;28;20152;-69
2022/04/04 06:23:33;;;;;;;8.45;5.63;;;5.40;86.10;;;;;;5052081;28;20182;-69
2022/04/04 06:26:05;;;;;;;8.48;5.75;;;5.40;86.30;;;;;;5052057;28;20045;-69
2022/04/04 06:28:31;;;;;;;11.95;6.80;;;5.50;86.10;;;;;;5052027;28;20106;-69
2022/04/04 06:30:58;;;;;;;10.70;6.32;;;5.50;86.80;;;;;;5050024;28;20053;-69
2022/04/04 06:33:24;;;;;;;8.77;6.35;;;5.40;86.80;;;;;;5051689;28;20520;-68
2022/04/04 06:35:50;;;;;;;8.82;6.10;;;5.40;87.00;;;;;;5051828;28;20045;-68
2022/04/04 06:38:18;;;;;;;13.40;7.55;;;5.50;87.40;;;;;;5051655;28;20056;-68
2022/04/04 06:40:44;;;;;;;12.23;6.72;;;5.50;87.60;;;;;;5051747;28;20421;-68
2022/04/04 06:43:10;;;;;;;9.88;6.90;;;5.50;87.40;;;;;;5051369;28;20604;-68
2022/04/04 06:45:36;;;;;;;11.43;7.28;;;5.60;87.30;;;;;;5051480;28;20077;-68
2022/04/04 06:48:02;;;;;;;14.15;8.20;;;5.60;87.50;;;;;;5051679;28;20067;-68
2022/04/04 06:50:30;;;;;;;13.20;9.15;;;5.70;87.30;;;;;;5051248;28;20044;-67
2022/04/04 06:52:56;;;;;;;13.13;7.82;;;5.70;87.60;;;;;;5051255;28;20575;-68
2022/04/04 06:55:21;;;;;;;14.23;8.15;;;5.70;87.70;;;;;;5051489;28;20045;-68
2022/04/04 06:57:47;;;;;;;16.13;9.80;;;5.70;87.90;;;;;;5051127;28;20478;-68
2022/04/04 07:00:15;;;;;;;14.95;8.98;;;5.90;87.90;;;;;;5051325;28;20037;-68
2022/04/04 07:02:41;;;;;;;23.77;9.82;;;5.90;87.70;;;;;;5051162;28;20095;-68
2022/04/04 07:05:08;;;;;;;15.68;10.18;;;5.90;87.70;;;;;;5050937;28;20059;-68
2022/04/04 07:07:34;;;;;;;26.08;10.45;;;5.90;88.20;;;;;;5039220;28;20176;-68
2022/04/04 07:10:00;;;;;;;16.63;9.57;;;5.90;88.20;;;;;;5013833;28;20057;-69
2022/04/04 07:12:27;;;;;;;14.50;8.93;;;6.10;88.10;;;;;;5033249;28;20456;-69
2022/04/04 07:14:54;;;;;;;20.65;11.23;;;6.10;88.20;;;;;;5032934;28;20383;-71
2022/04/04 07:17:20;;;;;;;13.10;8.65;;;6.10;88.10;;;;;;5048745;28;20512;-71
2022/04/04 07:19:45;;;;;;;16.85;10.73;;;6.10;88.50;;;;;;5050195;28;20110;-70
2022/04/04 07:22:11;;;;;;;17.17;9.55;;;6.10;88.60;;;;;;5044112;28;20486;-70
2022/04/04 07:24:37;;;;;;;13.85;8.88;;;6.20;88.40;;;;;;5050442;28;20111;-69
2022/04/04 07:27:03;;;;;;;13.90;9.75;;;6.20;88.60;;;;;;5043659;28;20049;-70
2022/04/04 07:29:29;;;;;;;17.17;9.85;;;6.10;88.70;;;;;;5031955;28;20526;-72
2022/04/04 07:31:55;;;;;;;13.43;9.05;;;6.10;89.20;;;;;;5031750;28;20567;-72
2022/04/04 07:34:21;;;;;;;16.30;8.07;;;6.20;89.00;;;;;;5032324;28;20045;-73
2022/04/04 07:36:47;;;;;;;14.80;9.23;;;6.20;88.90;;;;;;5032374;28;20053;-72
2022/04/04 07:39:12;;;;;;;17.55;8.93;;;6.30;88.90;;;;;;5039662;28;20541;-73
2022/04/04 07:41:38;;;;;;;15.55;9.38;;;6.20;89.20;;;;;;5039457;28;20425;-72
2022/04/04 07:44:05;;;;;;;15.93;8.27;;;6.20;89.50;;;;;;5035122;28;20049;-72
2022/04/04 07:46:31;;;;;;;11.98;8.27;;;6.20;89.50;;;;;;5031307;28;20107;-72
2022/04/04 07:48:58;;;;;;;14.25;9.90;;;6.20;89.50;;;;;;5036501;28;20037;-72
2022/04/04 07:51:23;;;;;;;18.63;9.00;;;6.30;89.30;;;;;;5044342;28;20049;-72
2022/04/04 07:53:49;;;;;;;11.73;8.00;;;6.20;89.30;;;;;;5048399;28;20095;-72
2022/04/04 07:56:15;;;;;;;14.02;8.20;;;6.20;89.30;;;;;;5049269;28;20048;-72
2022/04/04 07:58:41;;;;;;;11.65;8.60;;;6.20;89.60;;;;;;5016787;28;20049;-71
2022/04/04 08:01:07;;;;;;;10.68;7.30;;;6.20;90.00;;;;;;5044183;28;20110;-73
2022/04/04 08:03:32;;;;;;;12.45;9.10;;;6.20;90.00;;;;;;5048855;28;20083;-73
2022/04/04 08:05:58;;;;;;;12.07;7.43;;;6.20;90.30;;;;;;5049104;28;20052;-74
2022/04/04 08:08:24;;;;;;;17.80;7.32;;;6.30;90.10;;;;;;5049479;28;20075;-73
2022/04/04 08:10:50;;;;;;;11.32;7.68;;;6.20;90.20;;;;;;5049789;28;20048;-72
2022/04/04 08:13:17;;;;;;;10.10;6.68;;;6.20;90.30;;;;;;5050068;28;20131;-72
2022/04/04 08:15:42;;;;;;;10.95;6.78;;;6.20;90.40;;;;;;5050132;28;20799;-72
2022/04/04 08:18:08;;;;;;;10.27;7.20;;;6.20;90.50;;;;;;5048510;28;20076;-73
2022/04/04 08:20:34;;;;;;;13.18;8.32;;;6.20;90.60;;;;;;5047798;28;20124;-73
2022/04/04 08:22:59;;;;;;;14.23;7.28;;;6.20;90.60;;;;;;5048436;28;20052;-73
2022/04/04 08:25:26;;;;;;;13.32;7.70;;;6.20;90.80;;;;;;5055188;28;20099;-73
2022/04/04 08:27:51;;;;;;;10.45;6.90;;;6.30;90.70;;;;;;5048109;28;20519;-72
2022/04/04 08:30:18;;;;;;;7.13;6.35;;;6.40;90.60;;;;;;5048426;28;20080;-72
2022/04/04 08:32:44;;;;;;;10.93;6.38;;;6.40;90.50;;;;;;5048447;28;20028;-72
2022/04/04 08:35:12;;;;;;;11.70;7.28;;;6.40;90.50;;;;;;5048515;28;20438;-72
2022/04/04 08:37:41;;;;;;;12.45;7.75;;;6.50;90.40;;;;;;5048188;28;20410;-71
2022/04/04 08:40:09;;;;;;;9.75;6.55;;;6.50;90.40;;;;;;5047739;28;20535;-70
2022/04/04 08:42:35;;;;;;;9.20;6.28;;;6.50;90.40;;;;;;5047584;28;20072;-76
2022/04/04 08:45:02;;;;;;;9.25;6.43;;;6.50;90.30;;;;;;5048269;28;20087;-69
2022/04/04 08:47:29;;;;;;;15.32;6.38;;;6.60;90.30;;;;;;5048347;28;20045;-68
2022/04/04 08:49:56;;;;;;;11.80;5.80;;;6.60;90.20;;;;;;5047331;28;20572;-69
2022/04/04 08:52:23;;;;;;;11.10;5.72;;;6.60;90.40;;;;;;5048412;28;20051;-68
2022/04/04 08:54:49;;;;;;;7.30;5.20;;;6.60;90.40;;;;;;5046104;28;20037;-69
2022/04/04 08:57:15;;;;;;;7.60;5.43;;;6.60;90.50;;;;;;5046926;28;20485;-68
2022/04/04 08:59:41;;;;;;;13.50;6.10;;;6.60;90.60;;;;;;5047439;28;20075;-68
2022/04/04 09:02:07;;;;;;;9.90;5.78;;;6.60;90.40;;;;;;5048099;28;20083;-68
2022/04/04 09:04:33;;;;;;;9.60;5.80;;;6.60;90.40;;;;;;5048187;28;20037;-68
2022/04/04 09:07:05;;;;;;;9.45;5.57;;;6.70;90.40;;;;;;5047453;28;20131;-69
2022/04/04 09:09:42;;;;;;;12.77;5.63;;;6.80;90.20;;;;;;5047945;28;20079;-69
2022/04/04 09:12:17;;;;;;;7.68;5.57;;;6.70;90.20;;;;;;5047648;28;20117;-68
2022/04/04 09:14:44;;;;;;;8.43;5.40;;;6.80;90.40;;;;;;5047177;28;20056;-68
2022/04/04 09:17:11;;;;;;;6.70;5.40;;;6.90;90.30;;;;;;5049005;28;20041;-68
2022/04/04 09:19:38;;;;;;;7.72;5.43;;;6.70;90.60;;;;;;5048748;28;20098;-67
2022/04/04 09:22:13;;;;;;;16.90;6.88;;;6.80;90.60;;;;;;5048391;28;20049;-68
2022/04/04 09:24:46;;;;;;;11.82;6.05;;;6.80;90.60;;;;;;5048808;28;20048;-68
2022/04/04 09:27:16;;;;;;;12.13;5.40;;;6.90;90.60;;;;;;5048813;28;20053;-68
2022/04/04 09:29:42;;;;;;;7.25;5.18;;;6.90;90.60;;;;;;5048540;28;20091;-68
2022/04/04 09:32:12;;;;;;;10.18;5.70;;;6.90;90.70;;;;;;5048436;28;20094;-67
2022/04/04 09:35:08;;;;;;;12.25;5.63;;;6.90;90.70;;;;;;5048691;28;20482;-67
2022/04/04 09:37:35;;;;;;;10.32;5.53;;;6.90;90.90;;;;;;5049719;28;20144;-68
2022/04/04 09:40:16;;;;;;;11.50;5.20;;;7.00;90.70;;;;;;5052342;28;20037;-68
2022/04/04 09:42:53;;;;;;;8.90;5.63;;;7.00;90.70;;;;;;5050711;28;20064;-69
2022/04/04 09:45:24;;;;;;;9.18;5.70;;;7.00;90.70;;;;;;5052613;28;20044;-68
2022/04/04 09:48:07;;;;;;;10.10;5.00;;;7.00;90.70;;;;;;5052403;28;20049;-68
2022/04/04 09:50:38;;;;;;;10.07;5.50;;;7.10;90.80;;;;;;5052642;28;20060;-68
2022/04/04 09:53:17;;;;;;;10.85;5.95;;;7.00;90.90;;;;;;5052344;28;20053;-67
2022/04/04 09:55:57;;;;;;;8.88;5.78;;;7.10;91.00;;;;;;5051848;28;20048;-67
2022/04/04 09:58:25;;;;;;;13.30;5.18;;;7.10;91.20;;;;;;5052241;28;20239;-67
2022/04/04 10:00:51;;;;;;;10.68;5.07;;;7.00;91.40;;;;;;5052282;28;20041;-68
2022/04/04 10:03:18;;;;;;;5.82;4.75;;;7.10;91.10;;;;;;5051756;28;20180;-69
2022/04/04 10:05:54;;;;;;;9.55;5.15;;;7.10;91.30;;;;;;5052311;28;20118;-70
2022/04/04 10:08:22;;;;;;;14.30;5.40;;;7.10;91.30;;;;;;5052071;28;20083;-68
2022/04/04 10:10:50;;;;;;;10.52;5.22;;;7.10;91.20;;;;;;5050720;28;20049;-68
2022/04/04 10:13:17;;;;;;;6.22;4.80;;;7.20;91.40;;;;;;5051808;28;20049;-68
2022/04/04 10:15:43;;;;;;;10.63;4.53;;;7.20;91.40;;;;;;5050748;28;20490;-68
2022/04/04 10:18:10;;;;;;;9.73;4.95;;;7.20;91.40;;;;;;5052266;28;20037;-67
2022/04/04 10:20:36;;;;;;;8.23;4.60;;;7.20;91.40;;;;;;5047431;28;20032;-67
2022/04/04 10:23:04;;;;;;;7.22;4.10;;;7.20;91.50;;;;;;5038340;28;20110;-67
2022/04/04 10:25:32;;;;;;;7.82;4.15;;;7.20;91.40;;;;;;5046623;28;20040;-68
2022/04/04 10:27:59;;;;;;;7.60;4.10;;;7.30;91.60;;;;;;5044746;28;20064;-69
2022/04/04 10:30:34;;;;;;;6.55;4.55;;;7.30;91.50;;;;;;5047440;28;20048;-68
2022/04/04 10:33:00;;;;;;;5.03;3.88;;;7.30;91.50;;;;;;5049655;28;20052;-68
2022/04/04 10:35:29;;;;;;;8.85;4.20;;;7.30;91.70;;;;;;5051627;28;20045;-68
2022/04/04 10:37:59;;;;;;;7.88;4.15;;;7.40;91.70;;;;;;5050933;28;20128;-68
2022/04/04 10:40:28;;;;;;;6.82;3.97;;;7.30;91.70;;;;;;5048276;28;20055;-69
2022/04/04 10:43:20;;;;;;;4.45;3.95;;;7.50;91.50;;;;;;5048837;28;20053;-69
2022/04/04 10:45:58;;;;;;;7.00;4.20;;;7.50;91.50;;;;;;5051095;28;20061;-68
2022/04/04 10:48:28;;;;;;;5.22;3.83;;;7.40;91.50;;;;;;5031244;28;20045;-68
2022/04/04 10:50:54;;;;;;;7.38;3.95;;;7.50;91.70;;;;;;5044837;28;20622;-68
2022/04/04 10:53:39;;;;;;;3.97;3.50;;;7.50;91.50;;;;;;5049519;28;20113;-69
2022/04/04 10:56:05;;;;;;;6.35;3.58;;;7.50;91.60;;;;;;5051272;28;20047;-68
2022/04/04 10:58:31;;;;;;;9.05;3.60;;;7.50;91.80;;;;;;5051044;28;20075;-68
2022/04/04 11:01:02;;;;;;;4.50;3.20;;;7.60;91.90;;;;;;5050422;28;20053;-68
2022/04/04 11:03:29;;;;;;;3.63;3.33;;;7.60;92.00;;;;;;5050731;28;20053;-69
2022/04/04 11:09:18;;;;;;;5.47;4.00;;;7.60;92.00;;;;;;5045099;28;20045;-69
2022/04/04 11:11:52;;;;;;;4.75;3.80;;;7.60;91.90;;;;;;5049412;28;20084;-70
2022/04/04 11:14:27;;;;;;;6.30;3.80;;;7.60;91.80;;;;;;5050128;28;20032;-69
2022/04/04 11:17:08;;;;;;;4.75;4.03;;;7.80;91.80;;;;;;5038336;28;20036;-69
2022/04/04 11:19:57;;;;;;;3.55;3.25;;;7.70;92.00;;;;;;5031006;28;20128;-69
2022/04/04 11:22:23;;;;;;;5.18;3.20;;;7.70;92.10;;;;;;5049456;28;20060;-70
2022/04/04 11:24:58;;;;;;;4.53;3.65;;;7.80;91.90;;;;;;5044773;28;20125;-71
2022/04/04 11:27:27;;;;;;;5.93;4.43;;;7.80;92.10;;;;;;5038655;28;20055;-69
2022/04/04 11:29:53;;;;;;;4.68;3.90;;;7.80;92.10;;;;;;5046480;28;20104;-68
2022/04/04 11:32:29;;;;;;;3.70;3.40;;;7.90;92.00;;;;;;5044806;28;20045;-69
2022/04/04 11:34:59;;;;;;;4.13;3.67;;;7.90;92.20;;;;;;5046390;28;20070;-69
2022/04/04 11:37:27;;;;;;;4.78;3.67;;;7.90;92.30;;;;;;5038246;28;20041;-69
2022/04/04 11:40:03;;;;;;;4.53;4.13;;;7.90;92.20;;;;;;5037100;28;20041;-68
2022/04/04 11:42:30;;;;;;;4.20;3.90;;;7.90;92.30;;;;;;5049183;28;20089;-68
2022/04/04 11:44:58;;;;;;;5.35;4.00;;;8.00;92.30;;;;;;5050185;28;20052;-69
2022/04/04 11:47:24;;;;;;;5.63;4.63;;;8.00;92.30;;;;;;5050125;28;20502;-69
2022/04/04 11:49:52;;;;;;;6.32;4.70;;;8.00;92.30;;;;;;5044237;28;20038;-69
2022/04/04 11:52:19;;;;;;;6.88;5.10;;;8.10;92.50;;;;;;5042719;28;20041;-69
2022/04/04 11:54:50;;;;;;;5.07;4.68;;;8.10;92.20;;;;;;5048281;28;20167;-68
2022/04/04 11:57:16;;;;;;;5.10;4.60;;;8.10;92.40;;;;;;5049574;28;20045;-68
2022/04/04 11:59:44;;;;;;;8.93;5.05;;;8.10;92.40;;;;;;5045856;28;20048;-68
2022/04/04 12:02:11;;;;;;;9.10;5.10;;;8.20;92.50;;;;;;5048526;28;20371;-68
2022/04/04 12:04:39;;;;;;;6.65;5.45;;;8.10;92.60;;;;;;5063693;28;20041;-67
2022/04/04 12:07:05;;;;;;;9.88;5.80;;;8.20;92.50;;;;;;5048247;28;20099;-68
2022/04/04 12:09:33;;;;;;;8.32;5.32;;;8.20;92.50;;;;;;5048645;28;20053;-68
2022/04/04 12:12:04;;;;;;;11.40;5.25;;;8.20;92.60;;;;;;5047809;28;20033;-68
2022/04/04 12:14:34;;;;;;;8.52;5.88;;;8.30;92.70;;;;;;5045380;28;20516;-69
2022/04/04 12:17:00;;;;;;;12.48;5.40;;;8.30;92.70;;;;;;5048291;28;20040;-68
2022/04/04 12:19:27;;;;;;;7.85;5.07;;;8.30;92.60;;;;;;5047302;28;20052;-68
2022/04/04 12:21:53;;;;;;;10.65;5.43;;;8.30;92.70;;;;;;5048313;28;20309;-68
2022/04/04 12:27:13;;;;;;;10.00;6.43;;;8.40;92.70;;;;;;5042652;28;20041;-67
2022/04/04 12:29:40;;;;;;;10.00;5.88;;;8.40;92.80;;;;;;5044342;28;20049;-68
2022/04/04 12:32:14;;;;;;;12.38;5.95;;;8.40;92.90;;;;;;5047169;28;20084;-70
2022/04/04 12:34:39;;;;;;;10.10;5.82;;;8.50;92.90;;;;;;5048071;28;20831;-67
2022/04/04 12:37:08;;;;;;;6.85;5.22;;;8.50;92.90;;;;;;5045962;28;20041;-68
2022/04/04 12:39:33;;;;;;;15.93;6.55;;;8.60;92.90;;;;;;5047784;28;20508;-68
2022/04/04 12:42:06;;;;;;;14.50;6.70;;;8.60;92.90;;;;;;5046731;28;20033;-67
2022/04/04 12:44:32;;;;;;;17.13;7.65;;;8.60;92.90;;;;;;5048223;28;20053;-68
2022/04/04 12:47:24;;;;;;;18.10;7.60;;;8.60;92.90;;;;;;5046192;28;20142;-68
2022/04/04 12:50:09;;;;;;;14.00;6.85;;;8.70;92.80;;;;;;5038061;28;20053;-68
2022/04/04 12:52:35;;;;;;;21.48;7.57;;;8.70;92.80;;;;;;5035257;28;20038;-68
2022/04/04 12:55:12;;;;;;;15.88;7.65;;;8.70;92.80;;;;;;5029461;28;20038;-68
2022/04/04 12:57:37;;;;;;;18.38;8.70;;;8.80;92.80;;;;;;5032353;28;20052;-68
2022/04/04 13:00:03;;;;;;;24.85;8.45;;;8.80;92.80;;;;;;5048471;28;20053;-68